sensor_id;sensor_type;location;lat;lon;timestamp;temperature;humidity
5246;DHT22;54412;51.206;6.888;2023-05-07T00:00:03;16.20;99.90
5246;DHT22;54412;51.206;6.888;2023-05-07T00:02:33;16.20;99.90
5246;DHT22;54412;51.206;6.888;2023-05-07T00:04:59;16.20;99.90
5246;DHT22;54412;51.206;6.888;2023-05-07T00:07:24;16.20;99.90
5246;DHT22;54412;51.206;6.888;2023-05-07T00:09:50;16.30;99.90
5246;DHT22;54412;51.206;6.888;2023-05-07T00:12:16;16.30;99.90
5246;DHT22;54412;51.206;6.888;2023-05-07T00:14:41;16.20;99.90
5246;DHT22;54412;51.206;6.888;2023-05-07T00:17:07;16.20;99.90
5246;DHT22;54412;51.206;6.888;2023-05-07T00:19:33;16.10;99.90
5246;DHT22;54412;51.206;6.888;2023-05-07T00:21:58;16.10;99.90
5246;DHT22;54412;51.206;6.888;2023-05-07T00:24:24;16.10;99.90
5246;DHT22;54412;51.206;6.888;2023-05-07T00:26:50;16.10;99.90
5246;DHT22;54412;51.206;6.888;2023-05-07T00:29:16;16.00;99.90
5246;DHT22;54412;51.206;6.888;2023-05-07T00:31:41;16.00;99.90
5246;DHT22;54412;51.206;6.888;2023-05-07T00:34:07;16.00;99.90
5246;DHT22;54412;51.206;6.888;2023-05-07T00:36:33;16.10;99.90
5246;DHT22;54412;51.206;6.888;2023-05-07T00:39:01;16.10;99.90
5246;DHT22;54412;51.206;6.888;2023-05-07T00:41:29;16.20;99.90
5246;DHT22;54412;51.206;6.888;2023-05-07T00:43:56;16.20;99.90
5246;DHT22;54412;51.206;6.888;2023-05-07T00:46:22;16.10;99.90
5246;DHT22;54412;51.206;6.888;2023-05-07T00:48:50;16.00;99.90
5246;DHT22;54412;51.206;6.888;2023-05-07T00:51:17;16.00;99.90
5246;DHT22;54412;51.206;6.888;2023-05-07T00:53:43;16.00;99.90
5246;DHT22;54412;51.206;6.888;2023-05-07T00:56:10;15.90;99.90
5246;DHT22;54412;51.206;6.888;2023-05-07T00:58:36;15.90;99.90
5246;DHT22;54412;51.206;6.888;2023-05-07T01:01:02;15.90;99.90
5246;DHT22;54412;51.206;6.888;2023-05-07T01:03:28;16.00;99.90
5246;DHT22;54412;51.206;6.888;2023-05-07T01:05:54;16.00;99.90
5246;DHT22;54412;51.206;6.888;2023-05-07T01:08:23;15.90;99.90
5246;DHT22;54412;51.206;6.888;2023-05-07T01:10:52;15.90;99.90
5246;DHT22;54412;51.206;6.888;2023-05-07T01:13:19;15.90;99.90
5246;DHT22;54412;51.206;6.888;2023-05-07T01:15:45;15.90;99.90
5246;DHT22;54412;51.206;6.888;2023-05-07T01:18:11;16.00;99.90
5246;DHT22;54412;51.206;6.888;2023-05-07T01:20:37;16.00;99.90
5246;DHT22;54412;51.206;6.888;2023-05-07T01:23:03;15.90;99.90
5246;DHT22;54412;51.206;6.888;2023-05-07T01:25:29;15.90;99.90
5246;DHT22;54412;51.206;6.888;2023-05-07T01:27:56;15.90;99.90
5246;DHT22;54412;51.206;6.888;2023-05-07T01:30:22;15.90;99.90
5246;DHT22;54412;51.206;6.888;2023-05-07T01:33:00;15.80;99.90
5246;DHT22;54412;51.206;6.888;2023-05-07T01:35:35;15.80;99.90
5246;DHT22;54412;51.206;6.888;2023-05-07T01:38:04;15.80;99.90
5246;DHT22;54412;51.206;6.888;2023-05-07T01:40:31;15.80;99.90
5246;DHT22;54412;51.206;6.888;2023-05-07T01:42:57;15.80;99.90
5246;DHT22;54412;51.206;6.888;2023-05-07T01:45:24;15.80;99.90
5246;DHT22;54412;51.206;6.888;2023-05-07T01:47:51;15.70;99.90
5246;DHT22;54412;51.206;6.888;2023-05-07T01:50:19;15.70;99.90
5246;DHT22;54412;51.206;6.888;2023-05-07T01:52:47;15.70;99.90
5246;DHT22;54412;51.206;6.888;2023-05-07T01:55:14;15.60;99.90
5246;DHT22;54412;51.206;6.888;2023-05-07T01:57:40;15.70;99.90
5246;DHT22;54412;51.206;6.888;2023-05-07T02:00:06;15.60;99.90
5246;DHT22;54412;51.206;6.888;2023-05-07T02:02:34;15.60;99.90
5246;DHT22;54412;51.206;6.888;2023-05-07T02:05:00;15.60;99.90
5246;DHT22;54412;51.206;6.888;2023-05-07T02:07:28;15.70;99.90
5246;DHT22;54412;51.206;6.888;2023-05-07T02:09:54;15.70;99.90
5246;DHT22;54412;51.206;6.888;2023-05-07T02:12:21;15.60;99.90
5246;DHT22;54412;51.206;6.888;2023-05-07T02:14:47;15.60;99.90
5246;DHT22;54412;51.206;6.888;2023-05-07T02:17:13;15.70;99.90
5246;DHT22;54412;51.206;6.888;2023-05-07T02:19:39;15.70;99.90
5246;DHT22;54412;51.206;6.888;2023-05-07T02:22:04;15.60;99.90
5246;DHT22;54412;51.206;6.888;2023-05-07T02:24:30;15.60;99.90
5246;DHT22;54412;51.206;6.888;2023-05-07T02:26:56;15.50;99.90
5246;DHT22;54412;51.206;6.888;2023-05-07T02:29:21;15.50;99.90
5246;DHT22;54412;51.206;6.888;2023-05-07T02:31:47;15.50;99.90
5246;DHT22;54412;51.206;6.888;2023-05-07T02:34:18;15.50;99.90
5246;DHT22;54412;51.206;6.888;2023-05-07T02:36:44;15.60;99.90
5246;DHT22;54412;51.206;6.888;2023-05-07T02:39:11;15.60;99.90
5246;DHT22;54412;51.206;6.888;2023-05-07T02:41:37;15.50;99.90
5246;DHT22;54412;51.206;6.888;2023-05-07T02:44:03;15.50;99.90
5246;DHT22;54412;51.206;6.888;2023-05-07T02:46:29;15.50;99.90
5246;DHT22;54412;51.206;6.888;2023-05-07T02:48:55;15.40;99.90
5246;DHT22;54412;51.206;6.888;2023-05-07T02:51:22;15.40;99.90
5246;DHT22;54412;51.206;6.888;2023-05-07T02:53:48;15.40;99.90
5246;DHT22;54412;51.206;6.888;2023-05-07T02:56:15;15.40;99.90
5246;DHT22;54412;51.206;6.888;2023-05-07T02:58:40;15.40;99.90
5246;DHT22;54412;51.206;6.888;2023-05-07T03:01:08;15.40;99.90
5246;DHT22;54412;51.206;6.888;2023-05-07T03:03:34;15.30;99.90
5246;DHT22;54412;51.206;6.888;2023-05-07T03:06:00;15.30;99.90
5246;DHT22;54412;51.206;6.888;2023-05-07T03:08:26;15.30;99.90
5246;DHT22;54412;51.206;6.888;2023-05-07T03:10:52;15.30;99.90
5246;DHT22;54412;51.206;6.888;2023-05-07T03:13:18;15.30;99.90
5246;DHT22;54412;51.206;6.888;2023-05-07T03:15:43;15.20;99.90
5246;DHT22;54412;51.206;6.888;2023-05-07T03:18:09;15.20;99.90
5246;DHT22;54412;51.206;6.888;2023-05-07T03:20:35;15.20;99.90
5246;DHT22;54412;51.206;6.888;2023-05-07T03:23:01;15.20;99.90
5246;DHT22;54412;51.206;6.888;2023-05-07T03:25:27;15.20;99.90
5246;DHT22;54412;51.206;6.888;2023-05-07T03:27:55;15.10;99.90
5246;DHT22;54412;51.206;6.888;2023-05-07T03:30:22;15.20;99.90
5246;DHT22;54412;51.206;6.888;2023-05-07T03:32:47;15.10;99.90
5246;DHT22;54412;51.206;6.888;2023-05-07T03:35:13;15.10;99.90
5246;DHT22;54412;51.206;6.888;2023-05-07T03:37:39;15.10;99.90
5246;DHT22;54412;51.206;6.888;2023-05-07T03:40:06;15.20;99.90
5246;DHT22;54412;51.206;6.888;2023-05-07T03:42:33;15.20;99.90
5246;DHT22;54412;51.206;6.888;2023-05-07T03:44:58;15.10;99.90
5246;DHT22;54412;51.206;6.888;2023-05-07T03:47:24;15.20;99.90
5246;DHT22;54412;51.206;6.888;2023-05-07T03:49:50;15.20;99.90
5246;DHT22;54412;51.206;6.888;2023-05-07T03:52:18;15.10;99.90
5246;DHT22;54412;51.206;6.888;2023-05-07T03:54:48;15.10;99.90
5246;DHT22;54412;51.206;6.888;2023-05-07T03:57:13;15.10;99.90
5246;DHT22;54412;51.206;6.888;2023-05-07T03:59:39;15.10;99.90
5246;DHT22;54412;51.206;6.888;2023-05-07T04:02:05;15.10;99.90
5246;DHT22;54412;51.206;6.888;2023-05-07T04:04:30;15.10;99.90
5246;DHT22;54412;51.206;6.888;2023-05-07T04:06:58;15.10;99.90
5246;DHT22;54412;51.206;6.888;2023-05-07T04:09:24;15.10;99.90
5246;DHT22;54412;51.206;6.888;2023-05-07T04:11:51;15.00;99.90
5246;DHT22;54412;51.206;6.888;2023-05-07T04:14:16;15.10;99.90
5246;DHT22;54412;51.206;6.888;2023-05-07T04:16:42;15.00;99.90
5246;DHT22;54412;51.206;6.888;2023-05-07T04:19:07;15.00;99.90
5246;DHT22;54412;51.206;6.888;2023-05-07T04:21:33;15.10;99.90
5246;DHT22;54412;51.206;6.888;2023-05-07T04:23:59;15.10;99.90
5246;DHT22;54412;51.206;6.888;2023-05-07T04:26:24;15.10;99.90
5246;DHT22;54412;51.206;6.888;2023-05-07T04:28:50;15.20;99.90
5246;DHT22;54412;51.206;6.888;2023-05-07T04:31:16;15.20;99.90
5246;DHT22;54412;51.206;6.888;2023-05-07T04:33:41;15.30;99.90
5246;DHT22;54412;51.206;6.888;2023-05-07T04:36:07;15.30;99.90
5246;DHT22;54412;51.206;6.888;2023-05-07T04:38:33;15.30;99.90
5246;DHT22;54412;51.206;6.888;2023-05-07T04:41:06;15.40;99.90
5246;DHT22;54412;51.206;6.888;2023-05-07T04:43:32;15.30;99.90
5246;DHT22;54412;51.206;6.888;2023-05-07T04:45:57;15.40;99.90
5246;DHT22;54412;51.206;6.888;2023-05-07T04:48:23;15.40;99.90
5246;DHT22;54412;51.206;6.888;2023-05-07T04:50:50;15.50;99.90
5246;DHT22;54412;51.206;6.888;2023-05-07T04:53:17;15.50;99.90
5246;DHT22;54412;51.206;6.888;2023-05-07T04:55:44;15.50;99.90
5246;DHT22;54412;51.206;6.888;2023-05-07T04:58:11;15.50;99.90
5246;DHT22;54412;51.206;6.888;2023-05-07T05:00:37;15.50;99.90
5246;DHT22;54412;51.206;6.888;2023-05-07T05:03:05;15.50;99.90
5246;DHT22;54412;51.206;6.888;2023-05-07T05:05:32;15.50;99.90
5246;DHT22;54412;51.206;6.888;2023-05-07T05:07:57;15.60;99.90
5246;DHT22;54412;51.206;6.888;2023-05-07T05:10:23;15.60;99.90
5246;DHT22;54412;51.206;6.888;2023-05-07T05:12:49;15.60;99.90
5246;DHT22;54412;51.206;6.888;2023-05-07T05:15:15;15.50;99.90
5246;DHT22;54412;51.206;6.888;2023-05-07T05:17:40;15.50;99.90
5246;DHT22;54412;51.206;6.888;2023-05-07T05:20:06;15.60;99.90
5246;DHT22;54412;51.206;6.888;2023-05-07T05:22:32;15.70;99.90
5246;DHT22;54412;51.206;6.888;2023-05-07T05:24:58;15.70;99.90
5246;DHT22;54412;51.206;6.888;2023-05-07T05:27:24;15.70;99.90
5246;DHT22;54412;51.206;6.888;2023-05-07T05:29:49;15.60;99.90
5246;DHT22;54412;51.206;6.888;2023-05-07T05:32:15;15.70;99.90
5246;DHT22;54412;51.206;6.888;2023-05-07T05:34:41;15.70;99.90
5246;DHT22;54412;51.206;6.888;2023-05-07T05:37:07;15.80;99.90
5246;DHT22;54412;51.206;6.888;2023-05-07T05:39:32;15.80;99.90
5246;DHT22;54412;51.206;6.888;2023-05-07T05:41:58;15.80;99.90
5246;DHT22;54412;51.206;6.888;2023-05-07T05:44:24;15.90;99.90
5246;DHT22;54412;51.206;6.888;2023-05-07T05:46:50;15.80;99.90
5246;DHT22;54412;51.206;6.888;2023-05-07T05:49:16;15.90;99.90
5246;DHT22;54412;51.206;6.888;2023-05-07T05:51:42;16.00;99.90
5246;DHT22;54412;51.206;6.888;2023-05-07T05:54:08;16.10;99.90
5246;DHT22;54412;51.206;6.888;2023-05-07T05:56:34;16.20;99.90
5246;DHT22;54412;51.206;6.888;2023-05-07T05:59:00;16.20;99.90
5246;DHT22;54412;51.206;6.888;2023-05-07T06:01:26;16.30;99.90
5246;DHT22;54412;51.206;6.888;2023-05-07T06:03:52;16.30;99.90
5246;DHT22;54412;51.206;6.888;2023-05-07T06:06:17;16.30;99.90
5246;DHT22;54412;51.206;6.888;2023-05-07T06:08:43;16.30;99.90
5246;DHT22;54412;51.206;6.888;2023-05-07T06:11:09;16.30;99.90
5246;DHT22;54412;51.206;6.888;2023-05-07T06:13:34;16.50;99.90
5246;DHT22;54412;51.206;6.888;2023-05-07T06:16:00;16.50;99.90
5246;DHT22;54412;51.206;6.888;2023-05-07T06:18:26;16.40;99.90
5246;DHT22;54412;51.206;6.888;2023-05-07T06:20:52;16.60;99.90
5246;DHT22;54412;51.206;6.888;2023-05-07T06:23:18;16.60;99.90
5246;DHT22;54412;51.206;6.888;2023-05-07T06:25:50;16.70;99.90
5246;DHT22;54412;51.206;6.888;2023-05-07T06:28:16;16.70;99.90
5246;DHT22;54412;51.206;6.888;2023-05-07T06:30:42;16.70;99.90
5246;DHT22;54412;51.206;6.888;2023-05-07T06:33:08;16.80;99.90
5246;DHT22;54412;51.206;6.888;2023-05-07T06:35:33;16.80;99.90
5246;DHT22;54412;51.206;6.888;2023-05-07T06:38:00;16.80;99.90
5246;DHT22;54412;51.206;6.888;2023-05-07T06:40:26;16.90;99.90
5246;DHT22;54412;51.206;6.888;2023-05-07T06:42:52;17.10;99.90
5246;DHT22;54412;51.206;6.888;2023-05-07T06:45:18;17.10;99.90
5246;DHT22;54412;51.206;6.888;2023-05-07T06:47:44;17.20;99.90
5246;DHT22;54412;51.206;6.888;2023-05-07T06:50:10;17.10;99.90
5246;DHT22;54412;51.206;6.888;2023-05-07T06:52:36;17.20;99.90
5246;DHT22;54412;51.206;6.888;2023-05-07T06:55:02;17.20;99.90
5246;DHT22;54412;51.206;6.888;2023-05-07T06:57:28;17.30;99.90
5246;DHT22;54412;51.206;6.888;2023-05-07T06:59:53;17.40;99.90
5246;DHT22;54412;51.206;6.888;2023-05-07T07:02:19;17.30;99.90
5246;DHT22;54412;51.206;6.888;2023-05-07T07:04:44;17.40;99.90
5246;DHT22;54412;51.206;6.888;2023-05-07T07:07:10;17.40;99.90
5246;DHT22;54412;51.206;6.888;2023-05-07T07:09:36;17.50;99.90
5246;DHT22;54412;51.206;6.888;2023-05-07T07:12:02;17.50;99.90
5246;DHT22;54412;51.206;6.888;2023-05-07T07:14:28;17.60;99.90
5246;DHT22;54412;51.206;6.888;2023-05-07T07:16:53;17.70;99.90
5246;DHT22;54412;51.206;6.888;2023-05-07T07:19:19;17.70;99.90
5246;DHT22;54412;51.206;6.888;2023-05-07T07:21:45;17.90;99.90
5246;DHT22;54412;51.206;6.888;2023-05-07T07:24:12;18.00;99.90
5246;DHT22;54412;51.206;6.888;2023-05-07T07:26:38;18.10;99.90
5246;DHT22;54412;51.206;6.888;2023-05-07T07:29:05;18.10;99.90
5246;DHT22;54412;51.206;6.888;2023-05-07T07:31:32;18.20;99.90
5246;DHT22;54412;51.206;6.888;2023-05-07T07:33:57;18.30;99.90
5246;DHT22;54412;51.206;6.888;2023-05-07T07:36:23;18.40;99.90
5246;DHT22;54412;51.206;6.888;2023-05-07T07:38:49;18.30;99.90
5246;DHT22;54412;51.206;6.888;2023-05-07T07:41:14;18.30;99.90
5246;DHT22;54412;51.206;6.888;2023-05-07T07:43:40;18.30;99.90
5246;DHT22;54412;51.206;6.888;2023-05-07T07:46:06;18.20;99.90
5246;DHT22;54412;51.206;6.888;2023-05-07T07:48:31;18.20;99.90
5246;DHT22;54412;51.206;6.888;2023-05-07T07:50:57;18.20;99.90
5246;DHT22;54412;51.206;6.888;2023-05-07T07:53:23;18.20;99.90
5246;DHT22;54412;51.206;6.888;2023-05-07T07:55:48;18.10;99.90
5246;DHT22;54412;51.206;6.888;2023-05-07T07:58:14;18.00;99.90
5246;DHT22;54412;51.206;6.888;2023-05-07T08:00:40;18.00;99.90
5246;DHT22;54412;51.206;6.888;2023-05-07T08:03:05;18.10;99.90
5246;DHT22;54412;51.206;6.888;2023-05-07T08:05:34;18.30;99.90
5246;DHT22;54412;51.206;6.888;2023-05-07T08:07:59;18.30;99.90
5246;DHT22;54412;51.206;6.888;2023-05-07T08:10:25;18.30;99.90
5246;DHT22;54412;51.206;6.888;2023-05-07T08:12:51;18.40;99.90
5246;DHT22;54412;51.206;6.888;2023-05-07T08:15:17;18.50;99.90
5246;DHT22;54412;51.206;6.888;2023-05-07T08:17:43;18.60;99.90
5246;DHT22;54412;51.206;6.888;2023-05-07T08:20:09;18.70;99.90
5246;DHT22;54412;51.206;6.888;2023-05-07T08:22:36;18.70;99.90
5246;DHT22;54412;51.206;6.888;2023-05-07T08:25:02;18.80;99.90
5246;DHT22;54412;51.206;6.888;2023-05-07T08:27:28;18.70;99.90
5246;DHT22;54412;51.206;6.888;2023-05-07T08:29:54;18.80;99.90
5246;DHT22;54412;51.206;6.888;2023-05-07T08:32:20;19.00;99.90
5246;DHT22;54412;51.206;6.888;2023-05-07T08:34:47;19.10;99.90
5246;DHT22;54412;51.206;6.888;2023-05-07T08:37:13;19.10;99.90
5246;DHT22;54412;51.206;6.888;2023-05-07T08:39:39;19.10;99.90
5246;DHT22;54412;51.206;6.888;2023-05-07T08:42:05;19.10;99.90
5246;DHT22;54412;51.206;6.888;2023-05-07T08:44:34;19.10;99.90
5246;DHT22;54412;51.206;6.888;2023-05-07T08:47:06;19.30;99.90
5246;DHT22;54412;51.206;6.888;2023-05-07T08:49:33;19.40;99.90
5246;DHT22;54412;51.206;6.888;2023-05-07T08:52:00;19.50;99.90
5246;DHT22;54412;51.206;6.888;2023-05-07T08:54:27;19.70;99.90
5246;DHT22;54412;51.206;6.888;2023-05-07T08:56:54;19.70;99.90
5246;DHT22;54412;51.206;6.888;2023-05-07T08:59:20;19.70;99.90
5246;DHT22;54412;51.206;6.888;2023-05-07T09:01:45;19.90;99.90
5246;DHT22;54412;51.206;6.888;2023-05-07T09:04:12;20.10;99.90
5246;DHT22;54412;51.206;6.888;2023-05-07T09:06:38;20.40;99.90
5246;DHT22;54412;51.206;6.888;2023-05-07T09:09:07;20.60;99.90
5246;DHT22;54412;51.206;6.888;2023-05-07T09:11:33;20.70;99.90
5246;DHT22;54412;51.206;6.888;2023-05-07T09:13:58;20.70;99.90
5246;DHT22;54412;51.206;6.888;2023-05-07T09:16:29;20.60;99.90
5246;DHT22;54412;51.206;6.888;2023-05-07T09:18:58;20.70;99.90
5246;DHT22;54412;51.206;6.888;2023-05-07T09:21:25;20.80;99.90
5246;DHT22;54412;51.206;6.888;2023-05-07T09:23:52;20.70;99.90
5246;DHT22;54412;51.206;6.888;2023-05-07T09:26:23;20.60;99.90
5246;DHT22;54412;51.206;6.888;2023-05-07T09:28:50;20.50;99.90
5246;DHT22;54412;51.206;6.888;2023-05-07T09:31:17;20.50;99.90
5246;DHT22;54412;51.206;6.888;2023-05-07T09:33:42;20.30;99.90
5246;DHT22;54412;51.206;6.888;2023-05-07T09:36:09;20.20;99.90
5246;DHT22;54412;51.206;6.888;2023-05-07T09:38:36;20.40;99.90
5246;DHT22;54412;51.206;6.888;2023-05-07T09:41:04;20.40;99.90
5246;DHT22;54412;51.206;6.888;2023-05-07T09:43:38;20.50;99.90
5246;DHT22;54412;51.206;6.888;2023-05-07T09:46:12;20.60;99.90
5246;DHT22;54412;51.206;6.888;2023-05-07T09:48:41;20.60;99.90
5246;DHT22;54412;51.206;6.888;2023-05-07T09:51:24;20.60;99.90
5246;DHT22;54412;51.206;6.888;2023-05-07T09:53:53;20.80;99.90
5246;DHT22;54412;51.206;6.888;2023-05-07T09:56:20;21.10;99.90
5246;DHT22;54412;51.206;6.888;2023-05-07T09:58:47;21.20;99.90
5246;DHT22;54412;51.206;6.888;2023-05-07T10:01:17;21.50;99.90
5246;DHT22;54412;51.206;6.888;2023-05-07T10:03:44;21.50;99.90
5246;DHT22;54412;51.206;6.888;2023-05-07T10:06:12;21.40;99.90
5246;DHT22;54412;51.206;6.888;2023-05-07T10:08:39;21.50;99.90
5246;DHT22;54412;51.206;6.888;2023-05-07T10:11:05;21.50;99.90
5246;DHT22;54412;51.206;6.888;2023-05-07T10:13:32;21.70;99.90
5246;DHT22;54412;51.206;6.888;2023-05-07T10:16:04;21.90;99.90
5246;DHT22;54412;51.206;6.888;2023-05-07T10:18:31;22.10;99.90
5246;DHT22;54412;51.206;6.888;2023-05-07T10:21:09;22.30;99.90
5246;DHT22;54412;51.206;6.888;2023-05-07T10:23:41;22.40;99.90
5246;DHT22;54412;51.206;6.888;2023-05-07T10:26:11;22.40;99.90
5246;DHT22;54412;51.206;6.888;2023-05-07T10:28:43;22.40;99.90
5246;DHT22;54412;51.206;6.888;2023-05-07T10:34:22;22.50;99.90
5246;DHT22;54412;51.206;6.888;2023-05-07T10:36:52;22.60;99.90
5246;DHT22;54412;51.206;6.888;2023-05-07T10:39:20;22.70;99.90
5246;DHT22;54412;51.206;6.888;2023-05-07T10:41:47;22.90;99.90
5246;DHT22;54412;51.206;6.888;2023-05-07T10:44:25;22.80;99.90
5246;DHT22;54412;51.206;6.888;2023-05-07T10:47:09;22.80;99.90
5246;DHT22;54412;51.206;6.888;2023-05-07T10:49:38;22.60;99.90
5246;DHT22;54412;51.206;6.888;2023-05-07T10:52:31;22.40;99.90
5246;DHT22;54412;51.206;6.888;2023-05-07T10:55:19;22.20;99.90
5246;DHT22;54412;51.206;6.888;2023-05-07T10:57:50;22.10;99.90
5246;DHT22;54412;51.206;6.888;2023-05-07T11:03:05;22.00;99.90
5246;DHT22;54412;51.206;6.888;2023-05-07T11:05:33;22.00;99.90
5246;DHT22;54412;51.206;6.888;2023-05-07T11:08:03;21.90;99.90
5246;DHT22;54412;51.206;6.888;2023-05-07T11:10:52;22.00;99.90
5246;DHT22;54412;51.206;6.888;2023-05-07T11:13:46;22.40;99.90
5246;DHT22;54412;51.206;6.888;2023-05-07T11:16:23;22.80;99.90
5246;DHT22;54412;51.206;6.888;2023-05-07T11:18:52;22.90;99.90
5246;DHT22;54412;51.206;6.888;2023-05-07T11:21:37;22.80;99.90
5246;DHT22;54412;51.206;6.888;2023-05-07T11:24:04;22.60;99.90
5246;DHT22;54412;51.206;6.888;2023-05-07T11:26:45;22.50;99.90
5246;DHT22;54412;51.206;6.888;2023-05-07T11:29:19;22.30;99.90
5246;DHT22;54412;51.206;6.888;2023-05-07T11:31:53;22.20;99.90
5246;DHT22;54412;51.206;6.888;2023-05-07T11:34:25;22.20;99.90
5246;DHT22;54412;51.206;6.888;2023-05-07T11:36:52;22.10;99.90
5246;DHT22;54412;51.206;6.888;2023-05-07T11:39:30;22.10;99.90
5246;DHT22;54412;51.206;6.888;2023-05-07T11:42:01;22.10;99.90
5246;DHT22;54412;51.206;6.888;2023-05-07T11:45:00;21.90;99.90
5246;DHT22;54412;51.206;6.888;2023-05-07T11:47:29;21.90;99.90
5246;DHT22;54412;51.206;6.888;2023-05-07T11:49:56;21.90;99.90
5246;DHT22;54412;51.206;6.888;2023-05-07T11:52:23;21.90;99.90
5246;DHT22;54412;51.206;6.888;2023-05-07T11:54:54;22.00;99.90
5246;DHT22;54412;51.206;6.888;2023-05-07T11:57:22;22.00;99.90
5246;DHT22;54412;51.206;6.888;2023-05-07T11:59:59;22.00;99.90
5246;DHT22;54412;51.206;6.888;2023-05-07T12:02:27;22.00;99.90
5246;DHT22;54412;51.206;6.888;2023-05-07T12:04:54;21.90;99.90
5246;DHT22;54412;51.206;6.888;2023-05-07T12:07:21;21.90;99.90
5246;DHT22;54412;51.206;6.888;2023-05-07T12:09:47;21.90;99.90
5246;DHT22;54412;51.206;6.888;2023-05-07T12:12:13;21.90;99.90
5246;DHT22;54412;51.206;6.888;2023-05-07T12:14:43;21.90;99.90
5246;DHT22;54412;51.206;6.888;2023-05-07T12:17:12;21.80;99.90
5246;DHT22;54412;51.206;6.888;2023-05-07T12:19:41;21.80;99.90
5246;DHT22;54412;51.206;6.888;2023-05-07T12:22:08;21.70;99.90
5246;DHT22;54412;51.206;6.888;2023-05-07T12:24:45;21.70;99.90
5246;DHT22;54412;51.206;6.888;2023-05-07T12:27:23;21.70;99.90
5246;DHT22;54412;51.206;6.888;2023-05-07T12:29:50;21.70;99.90
5246;DHT22;54412;51.206;6.888;2023-05-07T12:32:21;21.70;99.90
5246;DHT22;54412;51.206;6.888;2023-05-07T12:34:49;21.60;99.90
5246;DHT22;54412;51.206;6.888;2023-05-07T12:37:16;21.60;99.90
5246;DHT22;54412;51.206;6.888;2023-05-07T12:39:47;21.60;99.90
5246;DHT22;54412;51.206;6.888;2023-05-07T12:42:19;21.50;99.90
5246;DHT22;54412;51.206;6.888;2023-05-07T12:44:50;21.50;99.90
5246;DHT22;54412;51.206;6.888;2023-05-07T12:47:17;21.50;99.90
5246;DHT22;54412;51.206;6.888;2023-05-07T12:49:43;21.40;99.90
5246;DHT22;54412;51.206;6.888;2023-05-07T12:52:11;21.50;99.90
5246;DHT22;54412;51.206;6.888;2023-05-07T12:54:38;21.40;99.90
5246;DHT22;54412;51.206;6.888;2023-05-07T12:57:08;21.40;99.90
5246;DHT22;54412;51.206;6.888;2023-05-07T12:59:41;21.40;99.90
5246;DHT22;54412;51.206;6.888;2023-05-07T13:02:08;21.40;99.90
5246;DHT22;54412;51.206;6.888;2023-05-07T13:04:34;21.40;99.90
5246;DHT22;54412;51.206;6.888;2023-05-07T13:07:01;21.40;99.90
5246;DHT22;54412;51.206;6.888;2023-05-07T13:09:27;21.30;99.90
5246;DHT22;54412;51.206;6.888;2023-05-07T13:11:57;21.20;99.90
5246;DHT22;54412;51.206;6.888;2023-05-07T13:14:25;21.10;99.90
5246;DHT22;54412;51.206;6.888;2023-05-07T13:16:50;21.00;99.90
5246;DHT22;54412;51.206;6.888;2023-05-07T13:19:16;21.00;99.90
5246;DHT22;54412;51.206;6.888;2023-05-07T13:21:42;20.90;99.90
5246;DHT22;54412;51.206;6.888;2023-05-07T13:24:08;20.80;99.90
5246;DHT22;54412;51.206;6.888;2023-05-07T13:26:34;20.70;99.90
5246;DHT22;54412;51.206;6.888;2023-05-07T13:29:00;20.70;99.90
5246;DHT22;54412;51.206;6.888;2023-05-07T13:31:25;20.60;99.90
5246;DHT22;54412;51.206;6.888;2023-05-07T13:33:51;20.60;99.90
5246;DHT22;54412;51.206;6.888;2023-05-07T13:36:17;20.50;99.90
5246;DHT22;54412;51.206;6.888;2023-05-07T13:38:43;20.30;99.90
5246;DHT22;54412;51.206;6.888;2023-05-07T13:41:09;20.10;99.90
5246;DHT22;54412;51.206;6.888;2023-05-07T13:43:34;20.00;99.90
5246;DHT22;54412;51.206;6.888;2023-05-07T13:46:00;19.80;99.90
5246;DHT22;54412;51.206;6.888;2023-05-07T13:48:26;19.50;99.90
5246;DHT22;54412;51.206;6.888;2023-05-07T13:50:53;19.20;99.90
5246;DHT22;54412;51.206;6.888;2023-05-07T13:53:19;18.90;99.90
5246;DHT22;54412;51.206;6.888;2023-05-07T13:55:45;18.90;99.90
5246;DHT22;54412;51.206;6.888;2023-05-07T13:58:11;18.90;99.90
5246;DHT22;54412;51.206;6.888;2023-05-07T14:00:37;18.80;99.90
5246;DHT22;54412;51.206;6.888;2023-05-07T14:03:04;18.80;99.90
5246;DHT22;54412;51.206;6.888;2023-05-07T14:05:30;18.70;99.90
5246;DHT22;54412;51.206;6.888;2023-05-07T14:07:59;18.70;99.90
5246;DHT22;54412;51.206;6.888;2023-05-07T14:10:25;18.50;99.90
5246;DHT22;54412;51.206;6.888;2023-05-07T14:12:51;18.50;99.90
5246;DHT22;54412;51.206;6.888;2023-05-07T14:15:18;18.60;99.90
5246;DHT22;54412;51.206;6.888;2023-05-07T14:17:44;18.60;99.90
5246;DHT22;54412;51.206;6.888;2023-05-07T14:20:10;18.60;99.90
5246;DHT22;54412;51.206;6.888;2023-05-07T14:22:37;18.50;99.90
5246;DHT22;54412;51.206;6.888;2023-05-07T14:25:03;18.30;99.90
5246;DHT22;54412;51.206;6.888;2023-05-07T14:27:29;18.20;99.90
5246;DHT22;54412;51.206;6.888;2023-05-07T14:29:54;18.20;99.90
5246;DHT22;54412;51.206;6.888;2023-05-07T14:32:21;18.30;99.90
5246;DHT22;54412;51.206;6.888;2023-05-07T14:34:47;18.20;99.90
5246;DHT22;54412;51.206;6.888;2023-05-07T14:37:13;18.20;99.90
5246;DHT22;54412;51.206;6.888;2023-05-07T14:39:39;18.10;99.90
5246;DHT22;54412;51.206;6.888;2023-05-07T14:42:05;18.10;99.90
5246;DHT22;54412;51.206;6.888;2023-05-07T14:44:35;18.10;99.90
5246;DHT22;54412;51.206;6.888;2023-05-07T14:47:01;18.10;99.90
5246;DHT22;54412;51.206;6.888;2023-05-07T14:49:26;18.20;99.90
5246;DHT22;54412;51.206;6.888;2023-05-07T14:51:52;18.20;99.90
5246;DHT22;54412;51.206;6.888;2023-05-07T14:54:18;18.20;99.90
5246;DHT22;54412;51.206;6.888;2023-05-07T14:56:44;18.20;99.90
5246;DHT22;54412;51.206;6.888;2023-05-07T14:59:10;18.30;99.90
5246;DHT22;54412;51.206;6.888;2023-05-07T15:01:36;18.30;99.90
5246;DHT22;54412;51.206;6.888;2023-05-07T15:04:03;18.30;99.90
5246;DHT22;54412;51.206;6.888;2023-05-07T15:06:30;18.30;99.90
5246;DHT22;54412;51.206;6.888;2023-05-07T15:08:56;18.40;99.90
5246;DHT22;54412;51.206;6.888;2023-05-07T15:11:22;18.50;99.90
5246;DHT22;54412;51.206;6.888;2023-05-07T15:13:49;18.60;99.90
5246;DHT22;54412;51.206;6.888;2023-05-07T15:16:15;18.60;99.90
5246;DHT22;54412;51.206;6.888;2023-05-07T15:18:40;18.60;99.90
5246;DHT22;54412;51.206;6.888;2023-05-07T15:21:06;18.70;99.90
5246;DHT22;54412;51.206;6.888;2023-05-07T15:23:32;18.70;99.90
5246;DHT22;54412;51.206;6.888;2023-05-07T15:25:58;18.60;99.90
5246;DHT22;54412;51.206;6.888;2023-05-07T15:28:23;18.50;99.90
5246;DHT22;54412;51.206;6.888;2023-05-07T15:30:50;18.50;99.90
5246;DHT22;54412;51.206;6.888;2023-05-07T15:33:16;18.50;99.90
5246;DHT22;54412;51.206;6.888;2023-05-07T15:35:41;18.50;99.90
5246;DHT22;54412;51.206;6.888;2023-05-07T15:38:07;18.50;99.90
5246;DHT22;54412;51.206;6.888;2023-05-07T15:40:34;18.50;99.90
5246;DHT22;54412;51.206;6.888;2023-05-07T15:43:00;18.50;99.90
5246;DHT22;54412;51.206;6.888;2023-05-07T15:45:26;18.50;99.90
5246;DHT22;54412;51.206;6.888;2023-05-07T15:47:53;18.60;99.90
5246;DHT22;54412;51.206;6.888;2023-05-07T15:50:18;18.60;99.90